createdAt,value
2023-05-12T05:01:14.614Z,100141.78
2023-05-12T05:03:41.767Z,100138.16
2023-05-12T05:06:08.550Z,100146.81
2023-05-12T05:08:35.773Z,100158.31
2023-05-12T05:11:03.851Z,100151.81
2023-05-12T05:13:31.352Z,100155.19
2023-05-12T05:15:58.762Z,100169.50
2023-05-12T05:18:25.906Z,100166.69
2023-05-12T05:20:58.540Z,100165.59
2023-05-12T05:23:26.655Z,100172.38
2023-05-12T05:25:53.728Z,100175.00
2023-05-12T05:28:20.579Z,100179.22
2023-05-12T05:30:47.448Z,100175.84
2023-05-12T05:33:14.801Z,100180.78
2023-05-12T05:35:42.715Z,100185.97
2023-05-12T05:38:10.506Z,100192.75
2023-05-12T05:40:51.641Z,100190.72
2023-05-12T05:43:19.531Z,100196.97
2023-05-12T05:45:50.026Z,100196.00
2023-05-12T05:48:18.060Z,100194.84
2023-05-12T05:50:46.942Z,100197.22
2023-05-12T05:53:13.803Z,100201.34
2023-05-12T05:55:41.461Z,100193.47
2023-05-12T05:58:08.550Z,100196.00
2023-05-12T06:00:35.854Z,100203.75
2023-05-12T06:03:05.634Z,100210.66
2023-05-12T06:05:32.707Z,100208.78
2023-05-12T06:07:59.408Z,100225.38
2023-05-12T06:10:26.906Z,100225.25
2023-05-12T06:12:54.918Z,100219.66
2023-05-12T06:15:22.462Z,100224.09
2023-05-12T06:17:49.717Z,100229.97
2023-05-12T06:20:17.134Z,100236.84
2023-05-12T06:22:45.046Z,100235.75
2023-05-12T06:25:12.363Z,100238.25
2023-05-12T06:27:39.294Z,100237.88
2023-05-12T06:30:07.261Z,100242.97
2023-05-12T06:32:37.210Z,100239.38
2023-05-12T06:35:06.174Z,100241.03
2023-05-12T06:37:33.521Z,100243.38
2023-05-12T06:40:00.153Z,100237.13
2023-05-12T06:42:27.065Z,100242.94
2023-05-12T06:44:56.595Z,100249.00
2023-05-12T06:47:23.145Z,100240.75
2023-05-12T06:49:50.788Z,100241.53
2023-05-12T06:52:17.841Z,100247.38
2023-05-12T06:54:45.197Z,100251.59
2023-05-12T06:57:11.748Z,100246.09
2023-05-12T06:59:39.107Z,100250.50
2023-05-12T07:02:06.217Z,100242.16
2023-05-12T07:04:33.456Z,100239.06
2023-05-12T07:07:00.677Z,100230.03
2023-05-12T07:09:29.500Z,100237.41
2023-05-12T07:11:56.185Z,100238.91
2023-05-12T07:14:23.236Z,100238.56
2023-05-12T07:16:49.805Z,100239.91
2023-05-12T07:19:16.834Z,100232.41
2023-05-12T07:21:44.017Z,100241.59
2023-05-12T07:24:11.141Z,100248.06
2023-05-12T07:26:37.956Z,100243.91
2023-05-12T07:29:05.544Z,100238.38
2023-05-12T07:31:33.672Z,100245.13
2023-05-12T07:34:00.687Z,100239.44
2023-05-12T07:36:28.098Z,100244.44
2023-05-12T07:38:54.914Z,100236.66
2023-05-12T07:41:23.034Z,100241.00
2023-05-12T07:43:50.045Z,100244.69
2023-05-12T07:46:16.639Z,100241.28
2023-05-12T07:48:43.580Z,100236.78
2023-05-12T07:51:10.233Z,100241.59
2023-05-12T07:53:37.338Z,100240.50
2023-05-12T07:56:04.065Z,100234.66
2023-05-12T07:58:30.889Z,100237.19
2023-05-12T08:01:00.068Z,100226.34
2023-05-12T08:03:27.599Z,100229.81
2023-05-12T08:05:54.370Z,100237.41
2023-05-12T08:08:21.226Z,100243.91
2023-05-12T08:10:47.806Z,100230.78
2023-05-12T08:13:14.715Z,100232.00
2023-05-12T08:15:41.435Z,100227.06
2023-05-12T08:18:08.780Z,100218.84
2023-05-12T08:20:36.054Z,100230.81
2023-05-12T08:23:03.632Z,100230.63
2023-05-12T08:25:30.877Z,100217.50
2023-05-12T08:27:59.570Z,100222.94
2023-05-12T08:30:27.088Z,100225.94
2023-05-12T08:32:55.432Z,100224.53
2023-05-12T08:35:22.856Z,100219.25
2023-05-12T08:37:50.258Z,100220.66
2023-05-12T08:40:23.387Z,100225.84
2023-05-12T08:43:10.191Z,100226.53
2023-05-12T08:45:38.357Z,100228.00
2023-05-12T08:48:10.097Z,100232.94
2023-05-12T08:50:38.803Z,100224.53
2023-05-12T08:53:10.775Z,100235.88
2023-05-12T08:55:39.660Z,100238.53
2023-05-12T08:58:09.730Z,100229.38
2023-05-12T09:00:39.596Z,100230.34
2023-05-12T09:03:08.315Z,100242.84
2023-05-12T09:05:36.811Z,100230.47
2023-05-12T09:08:06.491Z,100230.66
2023-05-12T09:10:35.619Z,100225.38
2023-05-12T09:13:49.278Z,100232.09
2023-05-12T09:16:24.716Z,100223.34
2023-05-12T09:18:57.630Z,100225.97
2023-05-12T09:21:24.801Z,100225.75
2023-05-12T09:24:06.719Z,100232.75
2023-05-12T09:26:49.501Z,100235.00
2023-05-12T09:29:24.301Z,100226.41
2023-05-12T09:32:00.554Z,100227.91
2023-05-12T09:34:30.722Z,100225.38
2023-05-12T09:37:03.776Z,100222.28
2023-05-12T09:39:31.395Z,100223.22
2023-05-12T09:41:58.121Z,100234.09
2023-05-12T09:44:26.572Z,100228.66
2023-05-12T09:46:53.177Z,100223.06
2023-05-12T09:49:27.185Z,100222.94
2023-05-12T09:51:59.915Z,100226.66
2023-05-12T09:54:32.023Z,100221.09
2023-05-12T09:57:01.234Z,100224.09
2023-05-12T09:59:33.167Z,100220.66
2023-05-12T10:02:02.001Z,100216.09
2023-05-12T10:04:33.020Z,100218.09
2023-05-12T10:07:00.569Z,100219.38
2023-05-12T10:09:35.982Z,100219.50
2023-05-12T10:12:04.602Z,100205.34
2023-05-12T10:14:32.221Z,100224.91
2023-05-12T10:16:59.872Z,100216.00
2023-05-12T10:19:30.614Z,100213.44
2023-05-12T10:21:58.197Z,100208.88
2023-05-12T10:24:29.688Z,100216.31
2023-05-12T10:26:57.535Z,100203.72
2023-05-12T10:29:33.175Z,100213.06
2023-05-12T10:32:03.131Z,100212.31
2023-05-12T10:34:33.963Z,100200.03
2023-05-12T10:37:00.991Z,100198.47
2023-05-12T10:39:33.195Z,100196.63
2023-05-12T10:42:08.699Z,100213.50
2023-05-12T10:44:37.176Z,100202.47
2023-05-12T10:47:16.233Z,100209.94
2023-05-12T10:49:43.659Z,100215.25
2023-05-12T10:52:13.861Z,100201.75
2023-05-12T10:54:45.506Z,100197.47
2023-05-12T10:57:21.484Z,100207.19
2023-05-12T10:59:52.000Z,100213.28
2023-05-12T11:02:23.593Z,100207.69
2023-05-12T11:05:23.908Z,100214.25
2023-05-12T11:07:52.513Z,100201.47
2023-05-12T11:10:20.283Z,100204.47
2023-05-12T11:12:51.769Z,100207.56
2023-05-12T11:15:19.278Z,100212.31
2023-05-12T11:17:46.454Z,100208.75
2023-05-12T11:20:23.936Z,100208.13
2023-05-12T11:22:51.338Z,100213.31
2023-05-12T11:25:19.201Z,100210.19
2023-05-12T11:27:53.104Z,100205.72
2023-05-12T11:30:20.575Z,100214.63
2023-05-12T11:32:47.810Z,100211.78
2023-05-12T11:35:17.714Z,100218.78
2023-05-12T11:37:45.849Z,100223.09
2023-05-12T11:40:21.216Z,100231.78
2023-05-12T11:42:52.020Z,100215.16
2023-05-12T11:45:30.129Z,100218.81
2023-05-12T11:48:13.811Z,100216.28
2023-05-12T11:50:43.189Z,100216.06
2023-05-12T11:53:13.537Z,100215.75
2023-05-12T11:55:56.627Z,100212.63
2023-05-12T11:58:26.730Z,100217.78
2023-05-12T12:00:55.364Z,100218.78
2023-05-12T12:03:22.292Z,100212.06
2023-05-12T12:06:01.548Z,100232.66
2023-05-12T12:08:28.346Z,100218.22
2023-05-12T12:10:55.881Z,100217.94
2023-05-12T12:13:25.007Z,100206.34
2023-05-12T12:15:52.724Z,100217.06
2023-05-12T12:18:19.500Z,100216.38
2023-05-12T12:20:47.425Z,100220.50
2023-05-12T12:23:14.004Z,100211.50
2023-05-12T12:25:41.270Z,100211.25
2023-05-12T12:28:08.238Z,100208.22
2023-05-12T12:30:35.415Z,100214.97
2023-05-12T12:33:02.428Z,100213.38
2023-05-12T12:35:29.851Z,100213.22
2023-05-12T12:37:56.478Z,100219.22
2023-05-12T12:40:23.659Z,100215.09
2023-05-12T12:42:50.248Z,100214.97
2023-05-12T12:45:20.058Z,100220.09
2023-05-12T12:47:47.125Z,100209.34
2023-05-12T12:50:14.298Z,100213.78
2023-05-12T12:52:40.860Z,100207.53
2023-05-12T12:55:08.454Z,100216.38
2023-05-12T12:57:35.093Z,100220.41
2023-05-12T13:00:04.557Z,100212.97
2023-05-12T13:02:31.228Z,100220.81
2023-05-12T13:04:58.659Z,100224.50
2023-05-12T13:07:25.755Z,100217.50
2023-05-12T13:09:53.025Z,100228.69
2023-05-12T13:12:19.654Z,100221.50
2023-05-12T13:14:46.950Z,100219.94
2023-05-12T13:17:13.555Z,100222.09
2023-05-12T13:19:40.890Z,100228.84
2023-05-12T13:22:07.435Z,100226.94
2023-05-12T13:24:34.674Z,100229.81
2023-05-12T13:27:01.267Z,100214.66
2023-05-12T13:29:28.514Z,100223.50
2023-05-12T13:31:55.183Z,100234.09
2023-05-12T13:34:22.687Z,100217.19
2023-05-12T13:36:49.402Z,100215.94
2023-05-12T13:39:18.434Z,100223.22
2023-05-12T13:41:46.113Z,100216.34
2023-05-12T13:44:13.050Z,100213.78
2023-05-12T13:46:39.678Z,100222.97
2023-05-12T13:49:06.885Z,100214.06
2023-05-12T13:51:33.466Z,100218.38
2023-05-12T13:54:00.673Z,100220.09
2023-05-12T13:56:27.243Z,100217.22
2023-05-12T13:58:54.490Z,100215.75
2023-05-12T14:01:21.550Z,100215.94
2023-05-12T14:03:48.794Z,100207.78
2023-05-12T14:06:15.494Z,100207.34
2023-05-12T14:08:42.440Z,100212.34
2023-05-12T14:11:10.355Z,100196.06
2023-05-12T14:13:37.286Z,100207.47
2023-05-12T14:16:04.599Z,100207.72
2023-05-12T14:18:31.922Z,100198.81
2023-05-12T14:23:25.562Z,100203.84
2023-05-12T14:25:53.030Z,100199.56
2023-05-12T14:28:19.717Z,100198.16
2023-05-12T14:30:48.853Z,100191.56
2023-05-12T14:33:15.563Z,100196.59
2023-05-12T14:35:44.677Z,100196.25
2023-05-12T14:38:15.060Z,100199.59
2023-05-12T14:40:42.602Z,100196.13
2023-05-12T14:43:09.597Z,100207.31
2023-05-12T14:45:36.332Z,100207.19
2023-05-12T14:48:03.854Z,100208.91
2023-05-12T14:50:30.929Z,100213.19
2023-05-12T14:52:57.852Z,100214.09
2023-05-12T14:55:25.546Z,100220.66
2023-05-12T14:57:52.328Z,100225.38
2023-05-12T15:00:21.488Z,100212.84
2023-05-12T15:02:48.519Z,100214.16
2023-05-12T15:05:16.446Z,100214.63
2023-05-12T15:07:43.072Z,100218.41
2023-05-12T15:10:10.960Z,100214.47
2023-05-12T15:12:37.528Z,100217.19
2023-05-12T15:15:05.964Z,100221.44
2023-05-12T15:17:32.680Z,100227.56
2023-05-12T15:20:00.134Z,100223.41
2023-05-12T15:22:26.884Z,100227.56
2023-05-12T15:24:54.150Z,100226.88
2023-05-12T15:27:20.728Z,100232.44
2023-05-12T15:29:47.833Z,100223.97
2023-05-12T15:32:14.609Z,100232.94
2023-05-12T15:34:41.843Z,100227.53
2023-05-12T15:37:08.414Z,100222.50
2023-05-12T15:39:35.743Z,100226.19
2023-05-12T15:42:04.004Z,100224.44
2023-05-12T15:44:32.465Z,100224.81
2023-05-12T15:46:59.056Z,100224.66
2023-05-12T15:49:25.739Z,100233.41
2023-05-12T15:51:53.078Z,100219.97
2023-05-12T15:54:19.616Z,100224.19
2023-05-12T15:56:49.237Z,100221.00
2023-05-12T15:59:16.091Z,100221.00
2023-05-12T16:01:43.445Z,100232.34
2023-05-12T16:04:10.158Z,100234.44
2023-05-12T16:06:37.495Z,100226.34
2023-05-12T16:09:04.351Z,100233.72
2023-05-12T16:11:31.839Z,100220.94
2023-05-12T16:13:58.544Z,100230.91
2023-05-12T16:16:25.560Z,100223.78
2023-05-12T16:18:52.200Z,100224.28
2023-05-12T16:21:20.282Z,100224.78
2023-05-12T16:23:46.852Z,100220.59
2023-05-12T16:26:13.797Z,100225.53
2023-05-12T16:28:40.528Z,100221.47
2023-05-12T16:31:07.774Z,100217.41
2023-05-12T16:33:34.394Z,100213.72
2023-05-12T16:36:01.394Z,100210.31
2023-05-12T16:38:29.776Z,100213.22
2023-05-12T16:40:56.281Z,100208.81
2023-05-12T16:43:23.497Z,100205.38
2023-05-12T16:46:00.187Z,100207.47
2023-05-12T16:48:33.606Z,100205.88
2023-05-12T16:51:05.593Z,100209.78
2023-05-12T16:53:33.561Z,100202.69
2023-05-12T16:56:00.186Z,100209.03
2023-05-12T16:58:34.016Z,100214.69
2023-05-12T17:01:01.561Z,100208.66
2023-05-12T17:03:29.647Z,100205.31
2023-05-12T17:05:56.287Z,100213.09
2023-05-12T17:08:23.518Z,100212.22
2023-05-12T17:10:51.173Z,100217.88
2023-05-12T17:13:18.342Z,100217.00
2023-05-12T17:15:45.019Z,100220.81
2023-05-12T17:19:13.493Z,100226.34
2023-05-12T17:21:25.080Z,100218.59
2023-05-12T17:23:54.709Z,100228.16
2023-05-12T17:26:21.458Z,100222.00
2023-05-12T17:32:09.439Z,100238.84
2023-05-12T17:34:50.317Z,100231.34
2023-05-12T17:37:20.343Z,100245.06
2023-05-12T17:39:47.895Z,100245.19
2023-05-12T17:42:14.548Z,100243.19
2023-05-12T17:44:44.727Z,100242.47
2023-05-12T17:47:13.956Z,100241.81
2023-05-12T17:49:44.084Z,100242.72
2023-05-12T17:52:11.086Z,100247.38
2023-05-12T17:54:38.582Z,100253.63
2023-05-12T17:57:05.782Z,100248.81
2023-05-12T17:59:33.890Z,100255.31
2023-05-12T18:02:00.896Z,100247.78
2023-05-12T18:04:29.101Z,100248.25
2023-05-12T18:06:57.321Z,100262.06
2023-05-12T18:09:25.204Z,100260.56
2023-05-12T18:11:52.531Z,100265.56
2023-05-12T18:14:19.783Z,100260.84
2023-05-12T18:16:46.358Z,100257.84
2023-05-12T18:19:14.073Z,100265.41
2023-05-12T18:21:41.062Z,100267.56
2023-05-12T18:24:08.124Z,100267.81
2023-05-12T18:26:34.819Z,100264.81
2023-05-12T18:29:01.988Z,100274.28
2023-05-12T18:31:28.945Z,100283.56
2023-05-12T18:33:59.264Z,100279.66
2023-05-12T18:36:27.808Z,100273.09
2023-05-12T18:38:54.948Z,100274.31
2023-05-12T18:41:21.728Z,100281.84
2023-05-12T18:43:50.431Z,100276.88
2023-05-12T18:46:17.393Z,100290.88
2023-05-12T18:48:44.636Z,100287.09
2023-05-12T18:51:11.546Z,100292.06
2023-05-12T18:53:38.750Z,100292.66
2023-05-12T18:56:05.438Z,100294.06
2023-05-12T18:58:32.595Z,100294.91
2023-05-12T19:00:59.915Z,100302.44
2023-05-12T19:03:26.543Z,100304.75
2023-05-12T19:05:54.038Z,100302.75
2023-05-12T19:08:21.171Z,100305.97
2023-05-12T19:10:49.015Z,100315.41
2023-05-12T19:13:16.011Z,100310.50
2023-05-12T19:15:43.172Z,100320.16
2023-05-12T19:18:09.840Z,100311.81
2023-05-12T19:20:37.965Z,100316.06
2023-05-12T19:23:04.532Z,100312.09
2023-05-12T19:25:31.731Z,100318.94
2023-05-12T19:27:58.694Z,100322.97
2023-05-12T19:30:27.332Z,100325.44
2023-05-12T19:32:53.931Z,100320.63
2023-05-12T19:35:22.990Z,100327.34
2023-05-12T19:37:49.968Z,100328.88
2023-05-12T19:40:17.079Z,100323.19
2023-05-12T19:42:43.813Z,100330.78
2023-05-12T19:45:10.992Z,100336.59
2023-05-12T19:47:37.890Z,100323.81
2023-05-12T19:50:06.552Z,100336.72
2023-05-12T19:52:34.398Z,100335.47
2023-05-12T19:55:01.694Z,100328.13
2023-05-12T19:57:29.480Z,100339.13
2023-05-12T19:59:56.757Z,100347.63
2023-05-12T20:02:28.518Z,100341.72
2023-05-12T20:04:55.826Z,100341.19
2023-05-12T20:07:22.381Z,100341.72
2023-05-12T20:09:49.544Z,100340.41
2023-05-12T20:12:16.059Z,100347.78
2023-05-12T20:14:43.124Z,100351.75
2023-05-12T20:17:10.110Z,100347.69
2023-05-12T20:19:36.729Z,100355.88
2023-05-12T20:22:04.548Z,100355.19
2023-05-12T20:24:31.221Z,100348.53
2023-05-12T20:26:58.396Z,100350.50
2023-05-12T20:29:25.949Z,100351.69
